createdAt,value
2018-04-24T00:00:33.913Z,99.90
2018-04-24T00:03:01.467Z,99.90
2018-04-24T00:05:28.992Z,99.90
2018-04-24T00:07:57.324Z,99.90
2018-04-24T00:10:24.867Z,99.90
2018-04-24T00:12:52.387Z,99.90
2018-04-24T00:15:19.928Z,99.90
2018-04-24T00:17:47.470Z,99.90
2018-04-24T00:20:14.990Z,99.90
2018-04-24T00:22:42.514Z,99.90
2018-04-24T00:25:10.824Z,99.90
2018-04-24T00:27:38.357Z,99.90
2018-04-24T00:30:05.915Z,99.90
2018-04-24T00:32:34.204Z,99.90
2018-04-24T00:35:01.736Z,99.90
2018-04-24T00:37:30.066Z,99.90
2018-04-24T00:39:57.621Z,99.90
2018-04-24T00:42:25.165Z,99.90
2018-04-24T00:44:52.723Z,99.90
2018-04-24T00:47:20.274Z,99.90
2018-04-24T00:49:47.797Z,99.90
2018-04-24T00:52:15.318Z,99.90
2018-04-24T00:54:42.863Z,99.90
2018-04-24T00:57:10.420Z,99.90
2018-04-24T00:59:37.946Z,99.90
2018-04-24T01:02:06.227Z,99.90
2018-04-24T01:04:33.780Z,99.90
2018-04-24T01:07:01.323Z,99.90
2018-04-24T01:09:28.848Z,99.90
2018-04-24T01:11:56.417Z,99.90
2018-04-24T01:14:23.945Z,99.90
2018-04-24T01:16:51.507Z,99.90
2018-04-24T01:19:19.058Z,99.90
2018-04-24T01:21:46.614Z,99.90
2018-04-24T01:24:14.140Z,99.90
2018-04-24T01:26:41.688Z,99.90
2018-04-24T01:29:10.749Z,99.90
2018-04-24T01:31:38.302Z,99.90
2018-04-24T01:34:05.838Z,99.90
2018-04-24T01:36:34.162Z,99.90
2018-04-24T01:39:01.691Z,99.90
2018-04-24T01:41:29.249Z,99.90
2018-04-24T01:43:56.811Z,99.90
2018-04-24T01:46:24.385Z,99.90
2018-04-24T01:48:51.940Z,99.90
2018-04-24T01:51:19.497Z,99.90
2018-04-24T01:53:47.058Z,99.90
2018-04-24T01:56:14.943Z,99.90
2018-04-24T01:58:42.474Z,99.90
2018-04-24T02:01:10.034Z,99.90
2018-04-24T02:03:37.561Z,99.90
2018-04-24T02:06:05.879Z,99.90
2018-04-24T02:08:33.462Z,99.90
2018-04-24T02:11:01.027Z,99.90
2018-04-24T02:13:28.595Z,99.90
2018-04-24T02:15:56.155Z,99.90
2018-04-24T02:18:23.716Z,99.90
2018-04-24T02:20:51.270Z,99.90
2018-04-24T02:23:18.810Z,99.90
2018-04-24T02:25:46.335Z,99.90
2018-04-24T02:28:13.860Z,99.90
2018-04-24T02:30:41.386Z,99.90
2018-04-24T02:33:08.969Z,99.90
2018-04-24T02:35:36.526Z,99.90
2018-04-24T02:38:04.079Z,99.90
2018-04-24T02:40:31.643Z,99.90
2018-04-24T02:42:59.170Z,99.90
2018-04-24T02:45:26.698Z,99.90
2018-04-24T02:47:54.251Z,99.90
2018-04-24T02:50:21.815Z,99.90
2018-04-24T02:52:49.366Z,99.90
2018-04-24T02:55:16.901Z,99.90
2018-04-24T02:57:44.431Z,99.90
2018-04-24T03:00:11.951Z,99.90
2018-04-24T03:02:39.481Z,99.90
2018-04-24T03:05:07.010Z,99.90
2018-04-24T03:07:34.583Z,99.90
2018-04-24T03:10:02.119Z,99.90
2018-04-24T03:12:29.655Z,99.90
2018-04-24T03:14:57.211Z,99.90
2018-04-24T03:17:24.768Z,99.90
2018-04-24T03:19:52.304Z,99.90
2018-04-24T03:22:20.637Z,99.90
2018-04-24T03:24:48.159Z,99.90
2018-04-24T03:27:15.715Z,99.90
2018-04-24T03:29:43.278Z,99.90
2018-04-24T03:32:10.835Z,99.90
2018-04-24T03:34:38.400Z,99.90
2018-04-24T03:37:05.948Z,99.90
2018-04-24T03:39:34.254Z,99.90
2018-04-24T03:42:01.854Z,99.90
2018-04-24T03:44:29.415Z,99.90
2018-04-24T03:46:57.073Z,99.90
2018-04-24T03:49:24.678Z,99.90
2018-04-24T03:51:52.217Z,99.90
2018-04-24T03:54:19.746Z,99.90
2018-04-24T03:56:47.295Z,99.90
2018-04-24T03:59:16.342Z,99.90
2018-04-24T04:01:43.875Z,99.90
2018-04-24T04:04:11.424Z,99.90
2018-04-24T04:06:38.954Z,99.90
2018-04-24T04:09:06.513Z,99.90
2018-04-24T04:11:35.217Z,99.90
2018-04-24T04:14:02.741Z,99.90
2018-04-24T04:16:31.042Z,99.90
2018-04-24T04:19:10.384Z,99.90
2018-04-24T04:21:49.767Z,99.90
2018-04-24T04:24:28.989Z,99.90
2018-04-24T04:26:56.521Z,99.90
2018-04-24T04:29:25.779Z,99.90
2018-04-24T04:31:53.359Z,99.90
2018-04-24T04:34:20.927Z,99.90
2018-04-24T04:36:49.979Z,99.90
2018-04-24T04:39:17.538Z,99.90
2018-04-24T04:41:45.112Z,99.90
2018-04-24T04:44:12.671Z,99.90
2018-04-24T04:46:40.194Z,99.90
2018-04-24T04:49:08.527Z,99.90
2018-04-24T04:51:36.049Z,99.90
2018-04-24T04:54:03.604Z,99.90
2018-04-24T04:56:31.134Z,99.90
2018-04-24T04:58:58.710Z,99.90
2018-04-24T05:01:27.017Z,99.90
2018-04-24T05:03:54.552Z,99.90
2018-04-24T05:06:22.102Z,99.90
2018-04-24T05:08:50.398Z,99.90
2018-04-24T05:11:17.955Z,99.90
2018-04-24T05:13:45.495Z,99.90
2018-04-24T05:16:13.802Z,99.90
2018-04-24T05:18:41.368Z,99.90
2018-04-24T05:21:08.932Z,99.90
2018-04-24T05:23:36.509Z,99.90
2018-04-24T05:26:04.044Z,99.90
2018-04-24T05:28:31.591Z,99.90
2018-04-24T05:30:59.125Z,99.90
2018-04-24T05:33:27.420Z,99.90
2018-04-24T05:35:54.937Z,99.90
2018-04-24T05:38:22.490Z,99.90
2018-04-24T05:40:51.521Z,99.90
2018-04-24T05:43:19.850Z,99.90
2018-04-24T05:45:47.379Z,99.90
2018-04-24T05:48:14.894Z,99.90
2018-04-24T05:50:42.419Z,99.90
2018-04-24T05:53:09.953Z,99.90
2018-04-24T05:55:37.505Z,99.90
2018-04-24T05:58:05.039Z,99.90
2018-04-24T06:00:33.370Z,99.90
2018-04-24T06:03:00.899Z,99.90
2018-04-24T06:05:28.469Z,99.90
2018-04-24T06:07:56.001Z,99.90
2018-04-24T06:10:23.562Z,99.90
2018-04-24T06:12:51.985Z,99.90
2018-04-24T06:15:19.542Z,99.90
2018-04-24T06:17:47.076Z,99.90
2018-04-24T06:20:14.614Z,99.90
2018-04-24T06:22:42.908Z,99.90
2018-04-24T06:25:10.471Z,99.90
2018-04-24T06:27:38.067Z,99.90
2018-04-24T06:30:05.625Z,99.90
2018-04-24T06:32:33.175Z,99.90
2018-04-24T06:35:00.735Z,99.90
2018-04-24T06:37:28.280Z,99.90
2018-04-24T06:39:55.815Z,99.90
2018-04-24T06:42:23.425Z,99.90
2018-04-24T06:44:50.963Z,99.90
2018-04-24T06:47:18.513Z,99.90
2018-04-24T06:49:46.076Z,99.90
2018-04-24T06:52:13.628Z,99.90
2018-04-24T06:54:41.151Z,99.90
2018-04-24T06:57:08.699Z,99.90
2018-04-24T06:59:36.226Z,99.90
2018-04-24T07:02:03.742Z,99.90
2018-04-24T07:04:32.031Z,99.90
2018-04-24T07:06:59.585Z,99.90
2018-04-24T07:09:27.903Z,99.90
2018-04-24T07:11:55.427Z,99.90
2018-04-24T07:14:22.981Z,99.90
2018-04-24T07:16:51.305Z,99.90
2018-04-24T07:19:18.880Z,99.90
2018-04-24T07:21:46.431Z,99.90
2018-04-24T07:24:13.973Z,99.90
2018-04-24T07:26:41.524Z,99.90
2018-04-24T07:29:09.095Z,99.90
2018-04-24T07:31:36.650Z,99.90
2018-04-24T07:34:04.195Z,99.90
2018-04-24T07:36:31.763Z,99.90
2018-04-24T07:38:59.312Z,99.90
2018-04-24T07:41:26.827Z,99.90
2018-04-24T07:43:54.341Z,99.90
2018-04-24T07:46:21.885Z,99.80
2018-04-24T07:48:49.430Z,99.90
2018-04-24T07:51:16.975Z,99.90
2018-04-24T07:53:44.505Z,99.90
2018-04-24T07:56:12.023Z,99.40
2018-04-24T07:58:39.538Z,99.90
2018-04-24T08:01:07.102Z,99.70
2018-04-24T08:03:34.628Z,99.40
2018-04-24T08:06:02.163Z,99.90
2018-04-24T08:08:29.677Z,98.00
2018-04-24T08:10:57.228Z,99.60
2018-04-24T08:13:24.799Z,99.90
2018-04-24T08:15:53.105Z,98.10
2018-04-24T08:18:20.637Z,98.10
2018-04-24T08:20:48.166Z,97.80
2018-04-24T08:23:15.678Z,97.70
2018-04-24T08:25:43.227Z,99.80
2018-04-24T08:28:11.513Z,97.50
2018-04-24T08:30:39.819Z,99.90
2018-04-24T08:33:07.355Z,99.90
2018-04-24T08:35:34.879Z,96.90
2018-04-24T08:38:02.393Z,96.80
2018-04-24T08:40:29.918Z,97.40
2018-04-24T08:42:58.203Z,97.80
2018-04-24T08:45:26.492Z,96.10
2018-04-24T08:47:54.191Z,96.00
2018-04-24T08:50:22.444Z,95.10
2018-04-24T08:52:49.974Z,95.00
2018-04-24T08:55:17.495Z,91.50
2018-04-24T08:57:45.035Z,92.20
2018-04-24T09:00:12.581Z,91.50
2018-04-24T09:02:40.097Z,92.00
2018-04-24T09:05:08.991Z,91.10
2018-04-24T09:07:37.269Z,91.80
2018-04-24T09:10:05.539Z,91.90
2018-04-24T09:12:33.852Z,91.80
2018-04-24T09:15:01.417Z,91.80
2018-04-24T09:17:28.937Z,92.40
2018-04-24T09:19:57.210Z,91.40
2018-04-24T09:22:25.524Z,92.20
2018-04-24T09:24:53.074Z,91.80
2018-04-24T09:27:20.628Z,91.00
2018-04-24T09:29:53.765Z,91.10
2018-04-24T09:32:21.298Z,91.80
2018-04-24T09:34:48.817Z,92.70
2018-04-24T09:37:16.335Z,92.40
2018-04-24T09:39:44.046Z,90.90
2018-04-24T09:42:11.610Z,91.80
2018-04-24T09:44:39.163Z,93.60
2018-04-24T09:47:06.691Z,95.90
2018-04-24T09:49:34.262Z,93.10
2018-04-24T09:52:01.793Z,91.50
2018-04-24T09:54:29.332Z,91.80
2018-04-24T09:56:56.854Z,91.90
2018-04-24T09:59:24.373Z,93.40
2018-04-24T10:01:51.881Z,92.20
2018-04-24T10:04:20.175Z,92.30
2018-04-24T10:06:47.691Z,92.10
2018-04-24T10:09:15.239Z,91.50
2018-04-24T10:11:42.802Z,92.80
2018-04-24T10:14:10.323Z,92.00
2018-04-24T10:16:37.841Z,93.40
2018-04-24T10:19:05.376Z,92.80
2018-04-24T10:21:32.926Z,92.60
2018-04-24T10:24:00.443Z,91.80
2018-04-24T10:26:27.985Z,91.30
2018-04-24T10:28:56.356Z,91.00
2018-04-24T10:31:23.845Z,91.00
2018-04-24T10:33:51.399Z,90.60
2018-04-24T10:36:18.944Z,87.80
2018-04-24T10:38:47.280Z,90.40
2018-04-24T10:41:14.822Z,90.40
2018-04-24T10:43:42.419Z,88.10
2018-04-24T10:46:09.882Z,85.70
2018-04-24T10:48:38.164Z,85.60
2018-04-24T10:51:06.470Z,90.40
2018-04-24T10:53:34.627Z,90.40
2018-04-24T10:56:02.181Z,90.50
2018-04-24T10:58:29.690Z,91.40
2018-04-24T11:00:57.243Z,85.50
2018-04-24T11:03:24.775Z,85.60
2018-04-24T11:05:52.301Z,87.70
2018-04-24T11:08:21.360Z,89.10
2018-04-24T11:10:48.908Z,89.00
2018-04-24T11:13:16.422Z,88.30
2018-04-24T11:15:43.964Z,83.40
2018-04-24T11:18:11.511Z,87.80
2018-04-24T11:20:40.538Z,84.10
2018-04-24T11:23:08.814Z,81.70
2018-04-24T11:25:37.092Z,84.60
2018-04-24T11:28:04.610Z,83.70
2018-04-24T11:30:32.114Z,83.30
2018-04-24T11:32:59.658Z,90.70
2018-04-24T11:35:27.206Z,84.00
2018-04-24T11:37:54.727Z,82.80
2018-04-24T11:40:22.243Z,83.90
2018-04-24T11:42:51.341Z,79.40
2018-04-24T11:45:19.630Z,82.50
2018-04-24T11:47:47.899Z,83.20
2018-04-24T11:50:16.200Z,82.80
2018-04-24T11:52:43.726Z,83.00
2018-04-24T11:55:11.277Z,83.20
2018-04-24T11:57:39.555Z,78.40
2018-04-24T12:00:07.863Z,84.00
2018-04-24T12:02:35.407Z,83.90
2018-04-24T12:05:02.940Z,81.70
2018-04-24T12:07:30.464Z,77.40
2018-04-24T12:09:58.038Z,77.80
2018-04-24T12:12:25.544Z,79.80
2018-04-24T12:14:53.051Z,79.00
2018-04-24T12:17:20.567Z,78.30
2018-04-24T12:19:48.121Z,75.20
2018-04-24T12:22:15.663Z,77.30
2018-04-24T12:24:43.225Z,75.10
2018-04-24T12:27:11.559Z,76.10
2018-04-24T12:29:40.093Z,76.30
2018-04-24T12:32:07.866Z,75.30
2018-04-24T12:34:35.379Z,76.40
2018-04-24T12:37:02.927Z,71.70
2018-04-24T12:39:30.466Z,74.60
2018-04-24T12:41:58.030Z,74.70
2018-04-24T12:44:25.554Z,75.00
2018-04-24T12:46:53.818Z,79.90
2018-04-24T12:49:22.128Z,73.40
2018-04-24T12:51:49.706Z,73.30
2018-04-24T12:54:17.242Z,74.90
2018-04-24T12:56:44.767Z,73.90
2018-04-24T12:59:12.334Z,78.80
2018-04-24T13:01:40.607Z,78.80
2018-04-24T13:04:08.149Z,79.00
2018-04-24T13:06:37.181Z,70.90
2018-04-24T13:09:07.471Z,70.80
2018-04-24T13:11:35.025Z,75.80
2018-04-24T13:14:02.545Z,75.70
2018-04-24T13:16:30.090Z,74.30
2018-04-24T13:18:57.611Z,72.00
2018-04-24T13:21:25.130Z,76.10
2018-04-24T13:23:52.657Z,72.40
2018-04-24T13:26:20.173Z,71.80
2018-04-24T13:28:47.682Z,65.70
2018-04-24T13:31:15.349Z,71.10
2018-04-24T13:33:42.830Z,69.70
2018-04-24T13:36:10.408Z,69.80
2018-04-24T13:38:37.929Z,70.70
2018-04-24T13:41:05.471Z,68.80
2018-04-24T13:43:33.046Z,69.20
2018-04-24T13:46:00.569Z,71.70
2018-04-24T13:48:29.064Z,74.60
2018-04-24T13:50:56.601Z,74.60
2018-04-24T13:53:24.182Z,70.90
2018-04-24T13:55:52.487Z,75.00
2018-04-24T13:58:20.038Z,75.00
2018-04-24T14:00:47.564Z,69.10
2018-04-24T14:03:15.846Z,76.20
2018-04-24T14:05:44.129Z,72.80
2018-04-24T14:08:11.670Z,73.20
2018-04-24T14:10:39.218Z,71.70
2018-04-24T14:13:07.509Z,67.50
2018-04-24T14:15:35.819Z,71.70
2018-04-24T14:18:03.332Z,71.50
2018-04-24T14:20:30.845Z,72.10
2018-04-24T14:22:58.364Z,74.80
2018-04-24T14:25:26.668Z,72.10
2018-04-24T14:27:54.191Z,72.10
2018-04-24T14:30:21.704Z,65.70
2018-04-24T14:32:49.206Z,70.60
2018-04-24T14:35:17.512Z,69.80
2018-04-24T14:37:45.134Z,69.30
2018-04-24T14:40:12.680Z,70.90
2018-04-24T14:42:40.431Z,67.50
2018-04-24T14:45:08.001Z,67.90
2018-04-24T14:47:35.520Z,64.60
2018-04-24T14:50:03.079Z,70.90
2018-04-24T14:52:30.602Z,72.70
2018-04-24T14:54:58.138Z,71.70
2018-04-24T14:57:26.437Z,67.60
2018-04-24T14:59:54.763Z,73.00
2018-04-24T15:02:22.277Z,73.20
2018-04-24T15:04:49.803Z,65.10
2018-04-24T15:07:17.355Z,66.50
2018-04-24T15:09:44.867Z,67.50
2018-04-24T15:12:12.413Z,66.40
2018-04-24T15:14:40.767Z,70.60
2018-04-24T15:17:08.332Z,70.10
2018-04-24T15:19:35.854Z,69.30
2018-04-24T15:22:03.610Z,72.60
2018-04-24T15:24:31.147Z,69.00
2018-04-24T15:26:58.658Z,71.50
2018-04-24T15:29:26.199Z,71.10
2018-04-24T15:31:53.768Z,69.50
2018-04-24T15:34:21.315Z,66.50
2018-04-24T15:36:48.880Z,69.90
2018-04-24T15:39:16.431Z,71.40
2018-04-24T15:41:43.939Z,72.80
2018-04-24T15:44:12.243Z,68.70
2018-04-24T15:46:40.513Z,66.50
2018-04-24T15:49:08.016Z,66.40
2018-04-24T15:51:35.526Z,66.90
2018-04-24T15:54:03.069Z,64.20
2018-04-24T15:56:31.348Z,67.20
2018-04-24T15:59:00.441Z,70.90
2018-04-24T16:01:29.919Z,66.60
2018-04-24T16:03:57.495Z,66.90
2018-04-24T16:06:25.813Z,62.90
2018-04-24T16:08:53.942Z,62.90
2018-04-24T16:11:21.460Z,64.30
2018-04-24T16:13:49.016Z,67.80
2018-04-24T16:16:16.532Z,65.80
2018-04-24T16:18:44.825Z,65.60
2018-04-24T16:21:12.351Z,65.20
2018-04-24T16:23:39.889Z,65.50
2018-04-24T16:26:07.451Z,65.70
2018-04-24T16:28:34.995Z,66.60
2018-04-24T16:31:02.511Z,64.80
2018-04-24T16:33:30.031Z,66.60
2018-04-24T16:35:57.576Z,66.20
2018-04-24T16:38:25.139Z,68.50
2018-04-24T16:40:52.667Z,67.00
2018-04-24T16:43:20.199Z,66.90
2018-04-24T16:45:47.727Z,65.70
2018-04-24T16:48:15.267Z,65.30
2018-04-24T16:50:42.833Z,65.30
2018-04-24T16:53:10.348Z,68.20
2018-04-24T16:55:39.049Z,68.50
2018-04-24T16:58:07.332Z,65.20
2018-04-24T17:00:34.958Z,65.10
2018-04-24T17:03:02.448Z,68.90
2018-04-24T17:05:29.964Z,67.90
2018-04-24T17:07:57.474Z,66.40
2018-04-24T17:10:25.038Z,67.10
2018-04-24T17:12:52.631Z,66.80
2018-04-24T17:15:20.145Z,67.60
2018-04-24T17:17:47.710Z,68.40
2018-04-24T17:20:15.255Z,67.10
2018-04-24T17:22:42.775Z,67.10
2018-04-24T17:25:11.106Z,67.10
2018-04-24T17:27:38.701Z,67.00
2018-04-24T17:30:06.179Z,67.90
2018-04-24T17:32:33.895Z,66.70
2018-04-24T17:35:01.439Z,67.40
2018-04-24T17:37:28.963Z,69.80
2018-04-24T17:39:56.501Z,69.20
2018-04-24T17:42:24.854Z,69.70
2018-04-24T17:44:52.384Z,69.70
2018-04-24T17:47:19.914Z,69.80
2018-04-24T17:49:48.221Z,70.20
2018-04-24T17:52:15.789Z,70.20
2018-04-24T17:54:43.348Z,70.80
2018-04-24T17:57:10.978Z,69.30
2018-04-24T17:59:38.483Z,70.90
2018-04-24T18:02:05.975Z,71.10
2018-04-24T18:04:34.292Z,76.80
2018-04-24T18:07:01.819Z,76.20
2018-04-24T18:09:29.357Z,77.50
2018-04-24T18:11:56.883Z,79.30
2018-04-24T18:14:24.408Z,82.20
2018-04-24T18:16:52.728Z,90.00
2018-04-24T18:19:20.283Z,90.00
2018-04-24T18:21:47.847Z,84.50
2018-04-24T18:24:15.407Z,86.30
2018-04-24T18:26:42.980Z,89.50
2018-04-24T18:29:10.519Z,91.60
2018-04-24T18:31:38.047Z,91.90
2018-04-24T18:34:05.576Z,90.70
2018-04-24T18:36:33.134Z,90.00
2018-04-24T18:39:01.436Z,90.10
2018-04-24T18:41:28.984Z,90.10
2018-04-24T18:43:56.539Z,91.00
2018-04-24T18:46:24.828Z,93.20
2018-04-24T18:48:52.371Z,93.30
2018-04-24T18:51:21.905Z,93.50
2018-04-24T18:53:49.477Z,93.40
2018-04-24T18:56:17.025Z,94.30
2018-04-24T18:58:44.595Z,92.10
2018-04-24T19:01:12.131Z,95.20
2018-04-24T19:03:39.663Z,95.80
2018-04-24T19:06:07.198Z,92.60
2018-04-24T19:08:34.713Z,93.50
2018-04-24T19:11:05.027Z,95.30
2018-04-24T19:13:32.568Z,93.80
2018-04-24T19:16:00.155Z,93.80
2018-04-24T19:18:33.355Z,95.80
2018-04-24T19:21:01.127Z,95.40
2018-04-24T19:23:28.691Z,95.20
2018-04-24T19:25:56.231Z,94.60
2018-04-24T19:28:23.776Z,94.10
2018-04-24T19:30:51.290Z,94.10
2018-04-24T19:33:18.818Z,95.50
2018-04-24T19:35:46.384Z,97.10
2018-04-24T19:38:13.935Z,99.20
2018-04-24T19:41:00.197Z,98.20
2018-04-24T19:43:27.717Z,97.50
2018-04-24T19:45:55.273Z,97.20
2018-04-24T19:48:28.513Z,96.80
2018-04-24T19:50:56.079Z,96.30
2018-04-24T19:53:23.640Z,95.20
2018-04-24T19:55:52.365Z,98.80
2018-04-24T19:58:20.006Z,98.90
2018-04-24T20:00:47.529Z,98.10
2018-04-24T20:03:16.408Z,97.80
2018-04-24T20:05:43.926Z,97.80
2018-04-24T20:08:11.439Z,97.70
2018-04-24T20:10:39.040Z,98.00
2018-04-24T20:13:06.535Z,99.40
2018-04-24T20:15:34.832Z,99.90
2018-04-24T20:18:03.117Z,99.90
2018-04-24T20:20:30.694Z,99.90
2018-04-24T20:22:58.231Z,99.90
2018-04-24T20:25:26.336Z,99.40
2018-04-24T20:27:53.884Z,99.40
2018-04-24T20:30:21.399Z,99.90
2018-04-24T20:32:48.960Z,99.90
2018-04-24T20:35:17.292Z,99.90
2018-04-24T20:37:44.862Z,99.90
2018-04-24T20:40:12.428Z,99.90
2018-04-24T20:42:39.986Z,99.90
2018-04-24T20:45:07.559Z,99.90
2018-04-24T20:47:35.886Z,99.90
2018-04-24T20:50:03.444Z,99.90
2018-04-24T20:52:31.014Z,99.90
2018-04-24T20:54:58.538Z,99.90
2018-04-24T20:57:26.867Z,99.90
2018-04-24T20:59:54.417Z,99.90
2018-04-24T21:02:21.950Z,99.90
2018-04-24T21:04:49.499Z,99.90
2018-04-24T21:07:17.026Z,99.90
2018-04-24T21:09:44.571Z,99.90
2018-04-24T21:12:12.125Z,99.90
2018-04-24T21:14:39.666Z,99.90
2018-04-24T21:17:07.200Z,99.90
2018-04-24T21:19:34.765Z,99.90
2018-04-24T21:22:03.069Z,99.90
2018-04-24T21:24:30.638Z,99.90
2018-04-24T21:26:58.191Z,99.90
2018-04-24T21:29:25.761Z,99.90
2018-04-24T21:31:53.300Z,99.90
2018-04-24T21:34:20.829Z,99.90
2018-04-24T21:36:49.144Z,99.90
2018-04-24T21:39:16.667Z,99.90
2018-04-24T21:41:44.995Z,99.90
2018-04-24T21:44:12.548Z,99.90
2018-04-24T21:46:40.074Z,99.90
2018-04-24T21:49:07.626Z,99.90
2018-04-24T21:51:35.194Z,99.90
2018-04-24T21:54:02.756Z,99.90
2018-04-24T21:56:30.283Z,99.90
2018-04-24T21:58:57.834Z,99.90
2018-04-24T22:01:26.155Z,99.90
2018-04-24T22:03:53.688Z,99.90
2018-04-24T22:06:21.240Z,99.90
2018-04-24T22:08:48.791Z,99.90
2018-04-24T22:11:16.352Z,99.90
2018-04-24T22:13:44.652Z,99.90
2018-04-24T22:16:12.199Z,99.90
2018-04-24T22:18:39.726Z,99.90
2018-04-24T22:21:07.324Z,99.90
2018-04-24T22:23:34.799Z,99.90
2018-04-24T22:26:02.329Z,99.90
2018-04-24T22:28:30.629Z,99.90
2018-04-24T22:30:58.173Z,99.90
2018-04-24T22:33:25.741Z,99.90
2018-04-24T22:35:53.297Z,99.90
2018-04-24T22:38:20.815Z,99.90
2018-04-24T22:40:48.342Z,99.90
2018-04-24T22:43:15.912Z,99.90
2018-04-24T22:45:43.448Z,99.90
2018-04-24T22:48:10.972Z,99.90
2018-04-24T22:50:38.525Z,99.90
2018-04-24T22:53:06.099Z,99.90
2018-04-24T22:55:33.661Z,99.90
2018-04-24T22:58:01.180Z,99.90
2018-04-24T23:00:28.728Z,99.90
2018-04-24T23:02:56.251Z,99.90
2018-04-24T23:05:23.761Z,99.90
2018-04-24T23:07:51.288Z,99.90
2018-04-24T23:10:30.693Z,99.90
2018-04-24T23:13:09.905Z,99.90
2018-04-24T23:15:49.415Z,99.90
2018-04-24T23:18:28.678Z,99.90
2018-04-24T23:21:08.722Z,99.90
2018-04-24T23:23:36.234Z,99.90
2018-04-24T23:26:03.793Z,99.90
2018-04-24T23:28:31.375Z,99.90
2018-04-24T23:30:58.936Z,99.90
2018-04-24T23:33:26.496Z,99.90
2018-04-24T23:35:54.051Z,99.90
2018-04-24T23:38:21.602Z,99.90
2018-04-24T23:40:49.156Z,99.90
2018-04-24T23:43:16.686Z,99.90
2018-04-24T23:45:44.208Z,99.90
2018-04-24T23:48:11.731Z,99.90
2018-04-24T23:50:39.270Z,99.90
2018-04-24T23:53:06.812Z,99.90
2018-04-24T23:55:34.332Z,99.90
2018-04-24T23:58:01.873Z,99.90
